PWSweather.com
Personal Weather Stations
Station Observations
DELHOVEN
DormagenDE 41540

DormagenDE 41540

Lat: 51.083, Lon: 6.775

Elevation: 120

Station Type: WH1080

Latest ConditionsUpdated 5:59:22 AM GMT+01:01 Wednesday, Nov 26, 2014
Currently Today's Max Today's Min Today's Average
Temperature 41.2°F5.1°C 43.2°F6.2°C 41.2°F5.1°C 42.3°F5.7°C
Dew Point 33.9°F1.1°C 36.2°F2.3°C 33.9°F1.1°C 35.1°F1.7°C
Winds 4.5 mph SSW7.2 kmh SSW 9.8 mph SE15.8 kmh SE - 5.2 mph 8.4 kmh
Wind Gusts 8.3 mph13.4 kmh 15.2 mph24.5 kmh - -
Humidity 75% 78% 74% 76%
Pressure 30.07 in1018.3 mb 30.15 in1021.0 mb 30.06 in1017.9 mb -
Hour Temp Dew Point Humidity Winds Wind Gusts Pressure Precip Precip Rate Daily Precip Total
05:59 AM 41.2°F5.1°C 33.9°F1.1°C 75% 4.5 mph SSW7.2 kmh SSW 8.3 mph13.4 kmh 30.07 in1018.3 mb 0.00 in0.0 mm 0.00 in/hr0.0 mm/hr 0.00 in0.0 mm
05:54 AM 41.2°F5.1°C 33.9°F1.1°C 75% 5.4 mph E8.7 kmh E 9.2 mph14.8 kmh 30.06 in1017.9 mb 0.00 in0.0 mm 0.00 in/hr0.0 mm/hr 0.00 in0.0 mm
05:49 AM 41.2°F5.1°C 33.9°F1.1°C 75% 8.3 mph SE13.4 kmh SE 10.7 mph17.2 kmh 30.06 in1017.9 mb 0.00 in0.0 mm 0.00 in/hr0.0 mm/hr 0.00 in0.0 mm
05:44 AM 41.4°F5.2°C 34.0°F1.1°C 75% 6.0 mph SE9.7 kmh SE 8.3 mph13.4 kmh 30.06 in1017.9 mb 0.00 in0.0 mm 0.00 in/hr0.0 mm/hr 0.00 in0.0 mm
05:39 AM 41.4°F5.2°C 34.0°F1.1°C 75% 7.6 mph NE12.2 kmh NE 12.1 mph19.5 kmh 30.07 in1018.3 mb 0.00 in0.0 mm 0.00 in/hr0.0 mm/hr 0.00 in0.0 mm
05:34 AM 41.4°F5.2°C 34.0°F1.1°C 75% 6.0 mph 9.7 kmh 11.4 mph18.3 kmh 30.06 in1017.9 mb 0.00 in0.0 mm 0.00 in/hr0.0 mm/hr 0.00 in0.0 mm
05:29 AM 41.5°F5.3°C 34.2°F1.2°C 75% 2.2 mph SE3.5 kmh SE 4.5 mph7.2 kmh 30.07 in1018.3 mb 0.00 in0.0 mm 0.00 in/hr0.0 mm/hr 0.00 in0.0 mm
05:24 AM 41.5°F5.3°C 34.2°F1.2°C 75% 6.9 mph E11.1 kmh E 10.7 mph17.2 kmh 30.07 in1018.3 mb 0.00 in0.0 mm 0.00 in/hr0.0 mm/hr 0.00 in0.0 mm
05:19 AM 41.7°F5.4°C 34.4°F1.3°C 75% 5.4 mph E8.7 kmh E 10.7 mph17.2 kmh 30.07 in1018.3 mb 0.00 in0.0 mm 0.00 in/hr0.0 mm/hr 0.00 in0.0 mm
05:14 AM 41.7°F5.4°C 34.4°F1.3°C 75% 7.6 mph E12.2 kmh E 13.0 mph20.9 kmh 30.06 in1017.9 mb 0.00 in0.0 mm 0.00 in/hr0.0 mm/hr 0.00 in0.0 mm
05:09 AM 41.7°F5.4°C 34.4°F1.3°C 75% 9.8 mph SE15.8 kmh SE 15.2 mph24.5 kmh 30.07 in1018.3 mb 0.00 in0.0 mm 0.00 in/hr0.0 mm/hr 0.00 in0.0 mm
05:04 AM 41.9°F5.5°C 34.6°F1.4°C 75% 7.6 mph SE12.2 kmh SE 11.4 mph18.3 kmh 30.07 in1018.3 mb 0.00 in0.0 mm 0.00 in/hr0.0 mm/hr 0.00 in0.0 mm
04:59 AM 41.9°F5.5°C 34.6°F1.4°C 75% 8.3 mph SSE13.4 kmh SSE 11.4 mph18.3 kmh 30.07 in1018.3 mb 0.00 in0.0 mm 0.00 in/hr0.0 mm/hr 0.00 in0.0 mm
04:54 AM 41.9°F5.5°C 34.6°F1.4°C 75% 3.8 mph E6.1 kmh E 6.0 mph9.7 kmh 30.07 in1018.3 mb 0.00 in0.0 mm 0.00 in/hr0.0 mm/hr 0.00 in0.0 mm
04:49 AM 42.1°F5.6°C 34.7°F1.5°C 75% 5.4 mph NE8.7 kmh NE 8.3 mph13.4 kmh 30.07 in1018.3 mb 0.00 in0.0 mm 0.00 in/hr0.0 mm/hr 0.00 in0.0 mm
04:44 AM 42.3°F5.7°C 34.9°F1.6°C 75% 4.5 mph SE7.2 kmh SE 7.6 mph12.2 kmh 30.08 in1018.6 mb 0.00 in0.0 mm 0.00 in/hr0.0 mm/hr 0.00 in0.0 mm
04:39 AM 42.3°F5.7°C 34.9°F1.6°C 75% 4.5 mph SE7.2 kmh SE 9.8 mph15.8 kmh 30.07 in1018.3 mb 0.00 in0.0 mm 0.00 in/hr0.0 mm/hr 0.00 in0.0 mm
04:34 AM 42.4°F5.8°C 35.1°F1.7°C 75% 7.6 mph E12.2 kmh E 13.6 mph21.9 kmh 30.07 in1018.3 mb 0.00 in0.0 mm 0.00 in/hr0.0 mm/hr 0.00 in0.0 mm
04:29 AM 42.4°F5.8°C 35.1°F1.7°C 75% 6.0 mph ESE9.7 kmh ESE 8.3 mph13.4 kmh 30.08 in1018.6 mb 0.00 in0.0 mm 0.00 in/hr0.0 mm/hr 0.00 in0.0 mm
04:24 AM 42.4°F5.8°C 35.1°F1.7°C 75% 6.9 mph E11.1 kmh E 9.2 mph14.8 kmh 30.07 in1018.3 mb 0.00 in0.0 mm 0.00 in/hr0.0 mm/hr 0.00 in0.0 mm
04:19 AM 42.4°F5.8°C 35.1°F1.7°C 75% 6.9 mph NE11.1 kmh NE 10.7 mph17.2 kmh 30.08 in1018.6 mb 0.00 in0.0 mm 0.00 in/hr0.0 mm/hr 0.00 in0.0 mm
04:14 AM 42.4°F5.8°C 35.1°F1.7°C 75% 4.5 mph ESE7.2 kmh ESE 7.6 mph12.2 kmh 30.09 in1019.0 mb 0.00 in0.0 mm 0.00 in/hr0.0 mm/hr 0.00 in0.0 mm
04:09 AM 42.4°F5.8°C 35.1°F1.7°C 75% 6.0 mph SE9.7 kmh SE 13.0 mph20.9 kmh 30.09 in1019.0 mb 0.00 in0.0 mm 0.00 in/hr0.0 mm/hr 0.00 in0.0 mm
04:04 AM 42.6°F5.9°C 35.3°F1.8°C 75% 3.1 mph SE5.0 kmh SE 6.0 mph9.7 kmh 30.08 in1018.6 mb 0.00 in0.0 mm 0.00 in/hr0.0 mm/hr 0.00 in0.0 mm
03:59 AM 42.6°F5.9°C 35.3°F1.8°C 75% 3.8 mph SE6.1 kmh SE 6.0 mph9.7 kmh 30.08 in1018.6 mb 0.00 in0.0 mm 0.00 in/hr0.0 mm/hr 0.00 in0.0 mm
03:54 AM 42.6°F5.9°C 35.3°F1.8°C 75% 5.4 mph E8.7 kmh E 9.2 mph14.8 kmh 30.09 in1019.0 mb 0.00 in0.0 mm 0.00 in/hr0.0 mm/hr 0.00 in0.0 mm
03:49 AM 42.6°F5.9°C 35.3°F1.8°C 75% 5.4 mph SE8.7 kmh SE 10.7 mph17.2 kmh 30.09 in1019.0 mb 0.00 in0.0 mm 0.00 in/hr0.0 mm/hr 0.00 in0.0 mm
03:44 AM 42.8°F6.0°C 35.1°F1.7°C 74% 6.9 mph SE11.1 kmh SE 9.2 mph14.8 kmh 30.09 in1019.0 mb 0.00 in0.0 mm 0.00 in/hr0.0 mm/hr 0.00 in0.0 mm
03:39 AM 42.8°F6.0°C 35.1°F1.7°C 74% 6.0 mph SSW9.7 kmh SSW 9.8 mph15.8 kmh 30.09 in1019.0 mb 0.00 in0.0 mm 0.00 in/hr0.0 mm/hr 0.00 in0.0 mm
03:34 AM 42.8°F6.0°C 35.1°F1.7°C 74% 5.4 mph NW8.7 kmh NW 9.2 mph14.8 kmh 30.09 in1019.0 mb 0.00 in0.0 mm 0.00 in/hr0.0 mm/hr 0.00 in0.0 mm
03:29 AM 42.8°F6.0°C 35.1°F1.7°C 74% 4.5 mph WSW7.2 kmh WSW 9.2 mph14.8 kmh 30.09 in1019.0 mb 0.00 in0.0 mm 0.00 in/hr0.0 mm/hr 0.00 in0.0 mm
03:24 AM 43.0°F6.1°C 35.3°F1.8°C 74% 7.6 mph E12.2 kmh E 11.4 mph18.3 kmh 30.09 in1019.0 mb 0.00 in0.0 mm 0.00 in/hr0.0 mm/hr 0.00 in0.0 mm
03:19 AM 43.0°F6.1°C 35.3°F1.8°C 74% 6.9 mph SE11.1 kmh SE 11.4 mph18.3 kmh 30.10 in1019.3 mb 0.00 in0.0 mm 0.00 in/hr0.0 mm/hr 0.00 in0.0 mm
03:14 AM 43.0°F6.1°C 35.3°F1.8°C 74% 1.6 mph S2.6 kmh S 3.8 mph6.1 kmh 30.10 in1019.3 mb 0.00 in0.0 mm 0.00 in/hr0.0 mm/hr 0.00 in0.0 mm
03:09 AM 43.0°F6.1°C 35.3°F1.8°C 74% 4.5 mph S7.2 kmh S 9.2 mph14.8 kmh 30.10 in1019.3 mb 0.00 in0.0 mm 0.00 in/hr0.0 mm/hr 0.00 in0.0 mm
03:04 AM 43.2°F6.2°C 35.4°F1.9°C 74% 4.5 mph SE7.2 kmh SE 9.2 mph14.8 kmh 30.11 in1019.6 mb 0.00 in0.0 mm 0.00 in/hr0.0 mm/hr 0.00 in0.0 mm
02:59 AM 43.2°F6.2°C 35.4°F1.9°C 74% 6.0 mph SE9.7 kmh SE 9.8 mph15.8 kmh 30.10 in1019.3 mb 0.00 in0.0 mm 0.00 in/hr0.0 mm/hr 0.00 in0.0 mm
02:54 AM 43.2°F6.2°C 35.4°F1.9°C 74% 3.1 mph NE5.0 kmh NE 5.4 mph8.7 kmh 30.10 in1019.3 mb 0.00 in0.0 mm 0.00 in/hr0.0 mm/hr 0.00 in0.0 mm
02:49 AM 43.2°F6.2°C 35.8°F2.1°C 75% 5.4 mph E8.7 kmh E 7.6 mph12.2 kmh 30.11 in1019.6 mb 0.00 in0.0 mm 0.00 in/hr0.0 mm/hr 0.00 in0.0 mm
02:44 AM 43.2°F6.2°C 35.8°F2.1°C 75% 3.8 mph E6.1 kmh E 7.6 mph12.2 kmh 30.11 in1019.6 mb 0.00 in0.0 mm 0.00 in/hr0.0 mm/hr 0.00 in0.0 mm
02:39 AM 43.2°F6.2°C 35.8°F2.1°C 75% 2.2 mph E3.5 kmh E 3.8 mph6.1 kmh 30.11 in1019.6 mb 0.00 in0.0 mm 0.00 in/hr0.0 mm/hr 0.00 in0.0 mm
02:34 AM 43.2°F6.2°C 35.8°F2.1°C 75% 4.5 mph E7.2 kmh E 6.9 mph11.1 kmh 30.11 in1019.6 mb 0.00 in0.0 mm 0.00 in/hr0.0 mm/hr 0.00 in0.0 mm
02:29 AM 43.2°F6.2°C 35.8°F2.1°C 75% 4.5 mph S7.2 kmh S 6.9 mph11.1 kmh 30.11 in1019.6 mb 0.00 in0.0 mm 0.00 in/hr0.0 mm/hr 0.00 in0.0 mm
02:24 AM 43.2°F6.2°C 35.8°F2.1°C 75% 3.8 mph S6.1 kmh S 6.0 mph9.7 kmh 30.11 in1019.6 mb 0.00 in0.0 mm 0.00 in/hr0.0 mm/hr 0.00 in0.0 mm
02:19 AM 43.2°F6.2°C 35.8°F2.1°C 75% 5.4 mph E8.7 kmh E 9.2 mph14.8 kmh 30.12 in1020.0 mb 0.00 in0.0 mm 0.00 in/hr0.0 mm/hr 0.00 in0.0 mm
02:14 AM 43.2°F6.2°C 35.8°F2.1°C 75% 5.4 mph SE8.7 kmh SE 7.6 mph12.2 kmh 30.11 in1019.6 mb 0.00 in0.0 mm 0.00 in/hr0.0 mm/hr 0.00 in0.0 mm
02:09 AM 43.0°F6.1°C 35.6°F2.0°C 75% 6.9 mph SSE11.1 kmh SSE 9.8 mph15.8 kmh 30.11 in1019.6 mb 0.00 in0.0 mm 0.00 in/hr0.0 mm/hr 0.00 in0.0 mm
02:04 AM 43.0°F6.1°C 35.6°F2.0°C 75% 5.4 mph S8.7 kmh S 10.7 mph17.2 kmh 30.11 in1019.6 mb 0.00 in0.0 mm 0.00 in/hr0.0 mm/hr 0.00 in0.0 mm
01:59 AM 43.0°F6.1°C 35.6°F2.0°C 75% 4.5 mph ESE7.2 kmh ESE 6.0 mph9.7 kmh 30.12 in1020.0 mb 0.00 in0.0 mm 0.00 in/hr0.0 mm/hr 0.00 in0.0 mm
01:54 AM 42.8°F6.0°C 35.8°F2.1°C 76% 3.8 mph S6.1 kmh S 9.8 mph15.8 kmh 30.12 in1020.0 mb 0.00 in0.0 mm 0.00 in/hr0.0 mm/hr 0.00 in0.0 mm
01:49 AM 42.8°F6.0°C 35.8°F2.1°C 76% 8.3 mph E13.4 kmh E 12.1 mph19.5 kmh 30.12 in1020.0 mb 0.00 in0.0 mm 0.00 in/hr0.0 mm/hr 0.00 in0.0 mm
01:44 AM 42.8°F6.0°C 35.8°F2.1°C 76% 4.5 mph SE7.2 kmh SE 6.9 mph11.1 kmh 30.12 in1020.0 mb 0.00 in0.0 mm 0.00 in/hr0.0 mm/hr 0.00 in0.0 mm
01:39 AM 42.6°F5.9°C 35.9°F2.2°C 77% 7.6 mph E12.2 kmh E 10.7 mph17.2 kmh 30.12 in1020.0 mb 0.00 in0.0 mm 0.00 in/hr0.0 mm/hr 0.00 in0.0 mm
01:34 AM 42.6°F5.9°C 35.9°F2.2°C 77% 6.9 mph SE11.1 kmh SE 13.0 mph20.9 kmh 30.12 in1020.0 mb 0.00 in0.0 mm 0.00 in/hr0.0 mm/hr 0.00 in0.0 mm
01:29 AM 42.6°F5.9°C 36.2°F2.3°C 78% 3.8 mph S6.1 kmh S 7.6 mph12.2 kmh 30.12 in1020.0 mb 0.00 in0.0 mm 0.00 in/hr0.0 mm/hr 0.00 in0.0 mm
01:24 AM 42.4°F5.8°C 36.1°F2.3°C 78% 6.9 mph SE11.1 kmh SE 9.2 mph14.8 kmh 30.12 in1020.0 mb 0.00 in0.0 mm 0.00 in/hr0.0 mm/hr 0.00 in0.0 mm
01:19 AM 42.3°F5.7°C 35.9°F2.2°C 78% 6.0 mph NE9.7 kmh NE 11.4 mph18.3 kmh 30.13 in1020.3 mb 0.00 in0.0 mm 0.00 in/hr0.0 mm/hr 0.00 in0.0 mm
01:14 AM 42.1°F5.6°C 35.7°F2.1°C 78% 6.0 mph E9.7 kmh E 7.6 mph12.2 kmh 30.13 in1020.3 mb 0.00 in0.0 mm 0.00 in/hr0.0 mm/hr 0.00 in0.0 mm
01:09 AM 41.9°F5.5°C 35.6°F2.0°C 78% 2.2 mph E3.5 kmh E 4.5 mph7.2 kmh 30.13 in1020.3 mb 0.00 in0.0 mm 0.00 in/hr0.0 mm/hr 0.00 in0.0 mm
01:04 AM 41.7°F5.4°C 35.4°F1.9°C 78% 3.1 mph E5.0 kmh E 5.4 mph8.7 kmh 30.13 in1020.3 mb 0.00 in0.0 mm 0.00 in/hr0.0 mm/hr 0.00 in0.0 mm
12:59 AM 41.5°F5.3°C 35.2°F1.8°C 78% 3.1 mph E5.0 kmh E 6.0 mph9.7 kmh 30.13 in1020.3 mb 0.00 in0.0 mm 0.00 in/hr0.0 mm/hr 0.00 in0.0 mm
12:54 AM 41.5°F5.3°C 35.2°F1.8°C 78% 3.8 mph NW6.1 kmh NW 5.4 mph8.7 kmh 30.13 in1020.3 mb 0.00 in0.0 mm 0.00 in/hr0.0 mm/hr 0.00 in0.0 mm
12:49 AM 41.5°F5.3°C 35.2°F1.8°C 78% 6.0 mph E9.7 kmh E 8.3 mph13.4 kmh 30.14 in1020.7 mb 0.00 in0.0 mm 0.00 in/hr0.0 mm/hr 0.00 in0.0 mm
12:44 AM 41.5°F5.3°C 35.2°F1.8°C 78% 3.8 mph SSE6.1 kmh SSE 5.4 mph8.7 kmh 30.14 in1020.7 mb 0.00 in0.0 mm 0.00 in/hr0.0 mm/hr 0.00 in0.0 mm
12:39 AM 41.4°F5.2°C 34.7°F1.5°C 77% 3.1 mph SE5.0 kmh SE 5.4 mph8.7 kmh 30.14 in1020.7 mb 0.00 in0.0 mm 0.00 in/hr0.0 mm/hr 0.00 in0.0 mm
12:34 AM 41.4°F5.2°C 34.7°F1.5°C 77% 3.8 mph E6.1 kmh E 6.0 mph9.7 kmh 30.14 in1020.7 mb 0.00 in0.0 mm 0.00 in/hr0.0 mm/hr 0.00 in0.0 mm
12:29 AM 41.4°F5.2°C 34.7°F1.5°C 77% 3.1 mph E5.0 kmh E 4.5 mph7.2 kmh 30.14 in1020.7 mb 0.00 in0.0 mm 0.00 in/hr0.0 mm/hr 0.00 in0.0 mm
12:24 AM 41.4°F5.2°C 34.7°F1.5°C 77% 3.8 mph SE6.1 kmh SE 6.0 mph9.7 kmh 30.15 in1021.0 mb 0.00 in0.0 mm 0.00 in/hr0.0 mm/hr 0.00 in0.0 mm
12:19 AM 41.4°F5.2°C 34.7°F1.5°C 77% 4.5 mph NNE7.2 kmh NNE 6.0 mph9.7 kmh 30.15 in1021.0 mb 0.00 in0.0 mm 0.00 in/hr0.0 mm/hr 0.00 in0.0 mm
12:14 AM 41.4°F5.2°C 34.7°F1.5°C 77% 5.4 mph E8.7 kmh E 9.2 mph14.8 kmh 30.15 in1021.0 mb 0.00 in0.0 mm 0.00 in/hr0.0 mm/hr 0.00 in0.0 mm
12:09 AM 41.4°F5.2°C 34.4°F1.3°C 76% 5.4 mph S8.7 kmh S 9.8 mph15.8 kmh 30.15 in1021.0 mb 0.00 in0.0 mm 0.00 in/hr0.0 mm/hr 0.00 in0.0 mm
12:04 AM 41.5°F5.3°C 34.5°F1.4°C 76% 3.1 mph E5.0 kmh E 4.5 mph7.2 kmh 30.15 in1021.0 mb 0.00 in0.0 mm 0.00 in/hr0.0 mm/hr 0.00 in0.0 mm